sensor_id;sensor_type;location;lat;lon;timestamp;pressure;altitude;pressure_sealevel;temperature;humidity
29417;BME280;28421;51.030;4.006;2023-08-24T00:01:19;101669.50;;;18.49;90.68
29417;BME280;28421;51.030;4.006;2023-08-24T00:03:45;101647.91;;;18.41;91.13
29417;BME280;28421;51.030;4.006;2023-08-24T00:06:12;101656.72;;;18.43;90.67
29417;BME280;28421;51.030;4.006;2023-08-24T00:08:37;101634.03;;;18.23;92.13
29417;BME280;28421;51.030;4.006;2023-08-24T00:11:03;101677.53;;;18.64;91.48
29417;BME280;28421;51.030;4.006;2023-08-24T00:13:29;101663.03;;;18.50;91.44
29417;BME280;28421;51.030;4.006;2023-08-24T00:15:55;101667.88;;;18.61;91.61
29417;BME280;28421;51.030;4.006;2023-08-24T00:18:21;101672.75;;;18.73;90.99
29417;BME280;28421;51.030;4.006;2023-08-24T00:20:48;101682.22;;;18.90;90.30
29417;BME280;28421;51.030;4.006;2023-08-24T00:23:14;101701.31;;;18.83;90.76
29417;BME280;28421;51.030;4.006;2023-08-24T00:25:39;101662.09;;;18.78;89.83
29417;BME280;28421;51.030;4.006;2023-08-24T00:28:06;101658.13;;;18.87;88.67
29417;BME280;28421;51.030;4.006;2023-08-24T00:30:32;101662.09;;;18.84;89.74
29417;BME280;28421;51.030;4.006;2023-08-24T00:32:57;101659.19;;;18.93;89.53
29417;BME280;28421;51.030;4.006;2023-08-24T00:35:23;101647.44;;;18.79;91.27
29417;BME280;28421;51.030;4.006;2023-08-24T00:37:50;101654.69;;;18.65;91.38
29417;BME280;28421;51.030;4.006;2023-08-24T00:40:16;101677.84;;;18.96;90.93
29417;BME280;28421;51.030;4.006;2023-08-24T00:42:45;101646.81;;;18.83;90.10
29417;BME280;28421;51.030;4.006;2023-08-24T00:45:14;101625.63;;;18.72;90.63
29417;BME280;28421;51.030;4.006;2023-08-24T00:47:41;101688.75;;;19.16;90.14
29417;BME280;28421;51.030;4.006;2023-08-24T00:50:08;101688.97;;;19.07;89.66
29417;BME280;28421;51.030;4.006;2023-08-24T00:52:33;101732.00;;;19.38;88.63
29417;BME280;28421;51.030;4.006;2023-08-24T00:55:01;101694.44;;;19.34;87.78
29417;BME280;28421;51.030;4.006;2023-08-24T00:57:27;101695.28;;;19.41;86.73
29417;BME280;28421;51.030;4.006;2023-08-24T00:59:54;101670.53;;;19.43;86.63
29417;BME280;28421;51.030;4.006;2023-08-24T01:02:20;101699.69;;;19.55;86.25
29417;BME280;28421;51.030;4.006;2023-08-24T01:04:46;101690.03;;;19.59;86.21
29417;BME280;28421;51.030;4.006;2023-08-24T01:07:13;101649.78;;;19.22;86.19
29417;BME280;28421;51.030;4.006;2023-08-24T01:09:39;101693.38;;;19.48;86.11
29417;BME280;28421;51.030;4.006;2023-08-24T01:17:32;101646.84;;;19.30;86.36
29417;BME280;28421;51.030;4.006;2023-08-24T01:19:58;101685.63;;;19.58;85.68
29417;BME280;28421;51.030;4.006;2023-08-24T01:27:35;101682.47;;;19.81;85.64
29417;BME280;28421;51.030;4.006;2023-08-24T01:30:03;101705.13;;;19.95;85.84
29417;BME280;28421;51.030;4.006;2023-08-24T01:32:33;101658.34;;;19.72;85.94
29417;BME280;28421;51.030;4.006;2023-08-24T01:35:01;101666.31;;;19.73;86.34
29417;BME280;28421;51.030;4.006;2023-08-24T01:37:26;101670.28;;;19.84;86.76
29417;BME280;28421;51.030;4.006;2023-08-24T01:40:03;101633.19;;;19.43;87.63
29417;BME280;28421;51.030;4.006;2023-08-24T01:42:51;101643.91;;;19.38;89.86
29417;BME280;28421;51.030;4.006;2023-08-24T01:45:22;101602.75;;;19.40;90.49
29417;BME280;28421;51.030;4.006;2023-08-24T01:47:49;101594.78;;;19.45;90.32
29417;BME280;28421;51.030;4.006;2023-08-24T01:50:16;101537.56;;;18.65;94.24
29417;BME280;28421;51.030;4.006;2023-08-24T01:52:42;101560.63;;;18.62;96.71
29417;BME280;28421;51.030;4.006;2023-08-24T01:55:08;101523.09;;;18.51;97.95
29417;BME280;28421;51.030;4.006;2023-08-24T01:57:33;101541.97;;;18.46;100.00
29417;BME280;28421;51.030;4.006;2023-08-24T01:59:59;101570.91;;;18.67;100.00
29417;BME280;28421;51.030;4.006;2023-08-24T02:02:24;101556.19;;;18.61;100.00
29417;BME280;28421;51.030;4.006;2023-08-24T02:04:50;101550.78;;;18.68;100.00
29417;BME280;28421;51.030;4.006;2023-08-24T02:07:16;101550.97;;;18.60;100.00
29417;BME280;28421;51.030;4.006;2023-08-24T02:09:42;101522.66;;;18.34;100.00
29417;BME280;28421;51.030;4.006;2023-08-24T02:12:07;101567.28;;;18.53;100.00
29417;BME280;28421;51.030;4.006;2023-08-24T02:14:33;101521.63;;;18.42;100.00
29417;BME280;28421;51.030;4.006;2023-08-24T02:16:58;101507.34;;;18.27;100.00
29417;BME280;28421;51.030;4.006;2023-08-24T02:19:24;101546.16;;;18.55;100.00
29417;BME280;28421;51.030;4.006;2023-08-24T02:21:49;101525.81;;;18.45;100.00
29417;BME280;28421;51.030;4.006;2023-08-24T02:24:15;101464.81;;;17.99;100.00
29417;BME280;28421;51.030;4.006;2023-08-24T02:26:40;101526.44;;;18.33;100.00
29417;BME280;28421;51.030;4.006;2023-08-24T02:29:07;101497.31;;;18.21;100.00
29417;BME280;28421;51.030;4.006;2023-08-24T02:31:32;101508.00;;;18.35;100.00
29417;BME280;28421;51.030;4.006;2023-08-24T02:33:58;101481.81;;;18.41;100.00
29417;BME280;28421;51.030;4.006;2023-08-24T02:36:23;101458.56;;;18.19;100.00
29417;BME280;28421;51.030;4.006;2023-08-24T02:38:49;101492.94;;;18.53;100.00
29417;BME280;28421;51.030;4.006;2023-08-24T02:41:17;101480.16;;;18.33;100.00
29417;BME280;28421;51.030;4.006;2023-08-24T02:43:42;101500.69;;;18.56;100.00
29417;BME280;28421;51.030;4.006;2023-08-24T02:46:08;101447.03;;;18.10;99.90
29417;BME280;28421;51.030;4.006;2023-08-24T02:48:35;101498.16;;;18.48;100.00
29417;BME280;28421;51.030;4.006;2023-08-24T02:51:03;101475.31;;;18.35;99.69
29417;BME280;28421;51.030;4.006;2023-08-24T02:53:29;101477.63;;;18.25;100.00
29417;BME280;28421;51.030;4.006;2023-08-24T02:55:55;101469.88;;;18.22;99.11
29417;BME280;28421;51.030;4.006;2023-08-24T02:58:21;101489.38;;;18.39;99.67
29417;BME280;28421;51.030;4.006;2023-08-24T03:00:48;101459.81;;;18.23;99.59
29417;BME280;28421;51.030;4.006;2023-08-24T03:03:14;101451.25;;;18.12;100.00
29417;BME280;28421;51.030;4.006;2023-08-24T03:05:40;101447.66;;;18.19;99.72
29417;BME280;28421;51.030;4.006;2023-08-24T03:08:06;101447.47;;;18.20;100.00
29417;BME280;28421;51.030;4.006;2023-08-24T03:10:34;101442.00;;;18.20;100.00
29417;BME280;28421;51.030;4.006;2023-08-24T03:13:00;101446.00;;;18.24;100.00
29417;BME280;28421;51.030;4.006;2023-08-24T03:15:26;101437.22;;;18.22;100.00
29417;BME280;28421;51.030;4.006;2023-08-24T03:17:52;101424.44;;;18.23;100.00
29417;BME280;28421;51.030;4.006;2023-08-24T03:20:18;101425.91;;;18.25;100.00
29417;BME280;28421;51.030;4.006;2023-08-24T03:22:44;101434.69;;;18.27;99.78
29417;BME280;28421;51.030;4.006;2023-08-24T03:25:09;101434.72;;;18.34;99.65
29417;BME280;28421;51.030;4.006;2023-08-24T03:27:35;101437.84;;;18.31;99.51
29417;BME280;28421;51.030;4.006;2023-08-24T03:30:01;101420.69;;;18.17;100.00
29417;BME280;28421;51.030;4.006;2023-08-24T03:32:29;101441.38;;;18.11;100.00
29417;BME280;28421;51.030;4.006;2023-08-24T03:34:59;101410.38;;;17.93;100.00
29417;BME280;28421;51.030;4.006;2023-08-24T03:37:24;101396.56;;;17.81;100.00
29417;BME280;28421;51.030;4.006;2023-08-24T03:39:50;101440.13;;;18.07;100.00
29417;BME280;28421;51.030;4.006;2023-08-24T03:42:17;101387.13;;;17.77;100.00
29417;BME280;28421;51.030;4.006;2023-08-24T03:44:42;101404.66;;;17.68;100.00
29417;BME280;28421;51.030;4.006;2023-08-24T03:47:08;101437.16;;;17.89;100.00
29417;BME280;28421;51.030;4.006;2023-08-24T03:49:34;101458.94;;;18.02;100.00
29417;BME280;28421;51.030;4.006;2023-08-24T03:52:00;101439.47;;;17.92;100.00
29417;BME280;28421;51.030;4.006;2023-08-24T03:54:26;101431.03;;;17.74;100.00
29417;BME280;28421;51.030;4.006;2023-08-24T03:56:53;101422.44;;;17.63;100.00
29417;BME280;28421;51.030;4.006;2023-08-24T03:59:19;101407.09;;;17.49;100.00
29417;BME280;28421;51.030;4.006;2023-08-24T04:01:45;101451.75;;;17.75;100.00
29417;BME280;28421;51.030;4.006;2023-08-24T04:04:11;101411.09;;;17.53;100.00
29417;BME280;28421;51.030;4.006;2023-08-24T04:06:36;101444.41;;;17.69;100.00
29417;BME280;28421;51.030;4.006;2023-08-24T04:09:02;101456.75;;;17.71;100.00
29417;BME280;28421;51.030;4.006;2023-08-24T04:11:27;101469.97;;;17.74;100.00
29417;BME280;28421;51.030;4.006;2023-08-24T04:13:53;101486.28;;;17.74;100.00
29417;BME280;28421;51.030;4.006;2023-08-24T04:16:18;101471.88;;;17.80;100.00
29417;BME280;28421;51.030;4.006;2023-08-24T04:18:44;101462.19;;;17.71;100.00
29417;BME280;28421;51.030;4.006;2023-08-24T04:21:10;101409.41;;;17.52;100.00
29417;BME280;28421;51.030;4.006;2023-08-24T04:23:36;101428.25;;;17.60;100.00
29417;BME280;28421;51.030;4.006;2023-08-24T04:26:01;101441.75;;;17.75;100.00
29417;BME280;28421;51.030;4.006;2023-08-24T04:28:28;101398.75;;;17.51;100.00
29417;BME280;28421;51.030;4.006;2023-08-24T04:30:56;101406.06;;;17.50;100.00
29417;BME280;28421;51.030;4.006;2023-08-24T04:33:22;101442.56;;;17.76;100.00
29417;BME280;28421;51.030;4.006;2023-08-24T04:35:49;101445.84;;;17.64;100.00
29417;BME280;28421;51.030;4.006;2023-08-24T04:38:16;101443.06;;;17.45;100.00
29417;BME280;28421;51.030;4.006;2023-08-24T04:40:52;101439.31;;;17.52;100.00
29417;BME280;28421;51.030;4.006;2023-08-24T04:43:20;101498.06;;;17.95;100.00
29417;BME280;28421;51.030;4.006;2023-08-24T04:45:47;101411.69;;;17.49;100.00
29417;BME280;28421;51.030;4.006;2023-08-24T04:48:13;101474.19;;;17.90;100.00
29417;BME280;28421;51.030;4.006;2023-08-24T04:50:43;101425.31;;;17.55;100.00
29417;BME280;28421;51.030;4.006;2023-08-24T04:53:09;101441.66;;;17.62;100.00
29417;BME280;28421;51.030;4.006;2023-08-24T04:55:34;101424.25;;;17.50;100.00
29417;BME280;28421;51.030;4.006;2023-08-24T04:57:59;101426.19;;;17.62;100.00
29417;BME280;28421;51.030;4.006;2023-08-24T05:00:25;101409.41;;;17.52;100.00
29417;BME280;28421;51.030;4.006;2023-08-24T05:02:51;101426.81;;;17.64;100.00
29417;BME280;28421;51.030;4.006;2023-08-24T05:05:16;101359.31;;;17.20;100.00
29417;BME280;28421;51.030;4.006;2023-08-24T05:07:42;101430.31;;;17.52;100.00
29417;BME280;28421;51.030;4.006;2023-08-24T05:10:08;101431.16;;;17.52;100.00
29417;BME280;28421;51.030;4.006;2023-08-24T05:12:34;101449.63;;;17.70;100.00
29417;BME280;28421;51.030;4.006;2023-08-24T05:15:05;101453.19;;;17.71;100.00
29417;BME280;28421;51.030;4.006;2023-08-24T05:17:31;101431.38;;;17.57;100.00
29417;BME280;28421;51.030;4.006;2023-08-24T05:19:58;101426.16;;;17.56;100.00
29417;BME280;28421;51.030;4.006;2023-08-24T05:22:24;101418.63;;;17.51;100.00
29417;BME280;28421;51.030;4.006;2023-08-24T05:24:49;101393.50;;;17.49;100.00
29417;BME280;28421;51.030;4.006;2023-08-24T05:27:15;101419.94;;;17.69;100.00
29417;BME280;28421;51.030;4.006;2023-08-24T05:29:43;101410.31;;;17.73;100.00
29417;BME280;28421;51.030;4.006;2023-08-24T05:32:09;101386.00;;;17.58;100.00
29417;BME280;28421;51.030;4.006;2023-08-24T05:34:34;101417.66;;;17.79;100.00
29417;BME280;28421;51.030;4.006;2023-08-24T05:37:00;101435.31;;;17.96;100.00
29417;BME280;28421;51.030;4.006;2023-08-24T05:39:25;101388.78;;;17.78;100.00
29417;BME280;28421;51.030;4.006;2023-08-24T05:41:58;101374.53;;;17.69;100.00
29417;BME280;28421;51.030;4.006;2023-08-24T05:44:23;101401.16;;;17.87;100.00
29417;BME280;28421;51.030;4.006;2023-08-24T05:46:49;101389.25;;;17.95;100.00
29417;BME280;28421;51.030;4.006;2023-08-24T05:49:14;101358.06;;;17.84;100.00
29417;BME280;28421;51.030;4.006;2023-08-24T05:51:40;101363.91;;;17.81;100.00
29417;BME280;28421;51.030;4.006;2023-08-24T05:54:06;101354.25;;;17.72;100.00
29417;BME280;28421;51.030;4.006;2023-08-24T05:56:31;101377.09;;;17.84;100.00
29417;BME280;28421;51.030;4.006;2023-08-24T05:58:58;101340.00;;;17.70;100.00
29417;BME280;28421;51.030;4.006;2023-08-24T06:01:24;101333.53;;;17.64;100.00
29417;BME280;28421;51.030;4.006;2023-08-24T06:03:50;101382.34;;;17.99;100.00
29417;BME280;28421;51.030;4.006;2023-08-24T06:06:15;101370.00;;;17.96;100.00
29417;BME280;28421;51.030;4.006;2023-08-24T06:08:42;101363.72;;;18.09;100.00
29417;BME280;28421;51.030;4.006;2023-08-24T06:11:08;101358.47;;;18.27;100.00
29417;BME280;28421;51.030;4.006;2023-08-24T06:13:34;101346.97;;;18.25;100.00
29417;BME280;28421;51.030;4.006;2023-08-24T06:16:00;101352.81;;;18.42;100.00
29417;BME280;28421;51.030;4.006;2023-08-24T06:18:33;101348.41;;;18.41;100.00
29417;BME280;28421;51.030;4.006;2023-08-24T06:21:26;101338.38;;;18.42;100.00
29417;BME280;28421;51.030;4.006;2023-08-24T06:24:12;101378.72;;;18.91;100.00
29417;BME280;28421;51.030;4.006;2023-08-24T06:26:37;101342.66;;;18.89;100.00
29417;BME280;28421;51.030;4.006;2023-08-24T06:29:03;101352.25;;;19.05;99.87
29417;BME280;28421;51.030;4.006;2023-08-24T06:31:28;101392.59;;;19.34;98.78
29417;BME280;28421;51.030;4.006;2023-08-24T06:33:56;101351.47;;;19.36;98.09
29417;BME280;28421;51.030;4.006;2023-08-24T06:36:21;101412.31;;;19.81;97.44
29417;BME280;28421;51.030;4.006;2023-08-24T06:38:47;101384.59;;;19.46;96.33
29417;BME280;28421;51.030;4.006;2023-08-24T06:41:12;101362.38;;;19.36;96.17
29417;BME280;28421;51.030;4.006;2023-08-24T06:43:38;101350.34;;;19.50;96.21
29417;BME280;28421;51.030;4.006;2023-08-24T06:46:06;101373.63;;;19.91;94.60
29417;BME280;28421;51.030;4.006;2023-08-24T06:48:36;101366.13;;;19.86;94.60
29417;BME280;28421;51.030;4.006;2023-08-24T06:51:02;101344.56;;;20.03;93.22
29417;BME280;28421;51.030;4.006;2023-08-24T06:53:28;101345.22;;;20.24;92.03
29417;BME280;28421;51.030;4.006;2023-08-24T06:55:57;101367.94;;;20.68;91.43
29417;BME280;28421;51.030;4.006;2023-08-24T06:58:23;101362.31;;;20.63;89.47
29417;BME280;28421;51.030;4.006;2023-08-24T07:00:49;101346.75;;;20.81;88.45
29417;BME280;28421;51.030;4.006;2023-08-24T07:03:17;101366.41;;;21.08;88.40
29417;BME280;28421;51.030;4.006;2023-08-24T07:05:43;101368.09;;;21.09;85.81
29417;BME280;28421;51.030;4.006;2023-08-24T07:08:09;101397.31;;;21.27;86.43
29417;BME280;28421;51.030;4.006;2023-08-24T07:10:34;101363.44;;;21.28;86.01
29417;BME280;28421;51.030;4.006;2023-08-24T07:13:00;101375.19;;;21.47;86.10
29417;BME280;28421;51.030;4.006;2023-08-24T07:15:25;101383.31;;;21.54;84.77
29417;BME280;28421;51.030;4.006;2023-08-24T07:17:51;101349.78;;;21.58;83.76
29417;BME280;28421;51.030;4.006;2023-08-24T07:20:17;101384.47;;;21.76;83.32
29417;BME280;28421;51.030;4.006;2023-08-24T07:22:43;101380.84;;;21.94;82.77
29417;BME280;28421;51.030;4.006;2023-08-24T07:25:08;101416.06;;;22.32;82.55
29417;BME280;28421;51.030;4.006;2023-08-24T07:27:36;101382.22;;;22.15;81.57
29417;BME280;28421;51.030;4.006;2023-08-24T07:30:02;101392.03;;;22.04;81.35
29417;BME280;28421;51.030;4.006;2023-08-24T07:32:32;101403.78;;;22.35;81.43
29417;BME280;28421;51.030;4.006;2023-08-24T07:34:57;101369.00;;;22.24;81.36
29417;BME280;28421;51.030;4.006;2023-08-24T07:37:25;101326.13;;;22.18;80.70
29417;BME280;28421;51.030;4.006;2023-08-24T07:39:51;101361.25;;;22.21;81.14
29417;BME280;28421;51.030;4.006;2023-08-24T07:42:19;101348.03;;;22.18;80.51
29417;BME280;28421;51.030;4.006;2023-08-24T07:44:45;101374.25;;;22.37;80.59
29417;BME280;28421;51.030;4.006;2023-08-24T07:47:11;101365.69;;;22.45;80.54
29417;BME280;28421;51.030;4.006;2023-08-24T07:49:36;101386.06;;;22.61;80.31
29417;BME280;28421;51.030;4.006;2023-08-24T07:52:02;101368.63;;;22.55;80.05
29417;BME280;28421;51.030;4.006;2023-08-24T07:54:27;101380.44;;;22.68;79.61
29417;BME280;28421;51.030;4.006;2023-08-24T07:56:53;101363.13;;;22.08;80.03
29417;BME280;28421;51.030;4.006;2023-08-24T07:59:18;101382.00;;;22.52;79.75
29417;BME280;28421;51.030;4.006;2023-08-24T08:01:44;101373.19;;;22.62;80.61
29417;BME280;28421;51.030;4.006;2023-08-24T08:04:09;101351.25;;;22.62;80.59
29417;BME280;28421;51.030;4.006;2023-08-24T08:06:35;101317.28;;;22.51;80.66
29417;BME280;28421;51.030;4.006;2023-08-24T08:09:00;101327.06;;;22.58;80.93
29417;BME280;28421;51.030;4.006;2023-08-24T08:11:26;101336.81;;;22.66;80.71
29417;BME280;28421;51.030;4.006;2023-08-24T08:13:51;101353.16;;;22.73;80.60
29417;BME280;28421;51.030;4.006;2023-08-24T08:16:17;101369.81;;;22.71;80.62
29417;BME280;28421;51.030;4.006;2023-08-24T08:18:42;101351.47;;;22.60;80.64
29417;BME280;28421;51.030;4.006;2023-08-24T08:21:15;101316.34;;;22.45;80.72
29417;BME280;28421;51.030;4.006;2023-08-24T08:23:43;101301.94;;;22.38;80.43
29417;BME280;28421;51.030;4.006;2023-08-24T08:26:10;101366.97;;;22.78;80.98
29417;BME280;28421;51.030;4.006;2023-08-24T08:28:36;101336.34;;;22.57;81.00
29417;BME280;28421;51.030;4.006;2023-08-24T08:31:02;101330.28;;;22.55;80.86
29417;BME280;28421;51.030;4.006;2023-08-24T08:33:28;101334.69;;;22.56;80.60
29417;BME280;28421;51.030;4.006;2023-08-24T08:35:54;101338.13;;;22.64;80.74
29417;BME280;28421;51.030;4.006;2023-08-24T08:38:20;101371.72;;;22.71;81.25
29417;BME280;28421;51.030;4.006;2023-08-24T08:40:51;101330.88;;;22.11;82.74
29417;BME280;28421;51.030;4.006;2023-08-24T08:43:21;101324.00;;;21.66;86.33
29417;BME280;28421;51.030;4.006;2023-08-24T08:45:48;101302.28;;;21.41;87.98
29417;BME280;28421;51.030;4.006;2023-08-24T08:48:15;101293.88;;;21.66;85.98
29417;BME280;28421;51.030;4.006;2023-08-24T08:50:40;101318.81;;;22.00;85.38
29417;BME280;28421;51.030;4.006;2023-08-24T08:53:06;101321.31;;;22.01;84.83
29417;BME280;28421;51.030;4.006;2023-08-24T08:55:31;101300.72;;;21.99;85.18
29417;BME280;28421;51.030;4.006;2023-08-24T08:57:58;101341.03;;;21.80;88.52
29417;BME280;28421;51.030;4.006;2023-08-24T09:00:25;101318.47;;;21.54;88.77
29417;BME280;28421;51.030;4.006;2023-08-24T09:02:53;101322.66;;;21.57;88.42
29417;BME280;28421;51.030;4.006;2023-08-24T09:05:20;101343.31;;;21.41;92.41
29417;BME280;28421;51.030;4.006;2023-08-24T09:07:47;101343.94;;;21.55;90.41
29417;BME280;28421;51.030;4.006;2023-08-24T09:10:13;101365.25;;;21.65;90.59
29417;BME280;28421;51.030;4.006;2023-08-24T09:12:39;101334.84;;;21.43;90.14
29417;BME280;28421;51.030;4.006;2023-08-24T09:15:05;101440.47;;;21.92;90.21
29417;BME280;28421;51.030;4.006;2023-08-24T09:17:32;101442.63;;;21.72;90.20
29417;BME280;28421;51.030;4.006;2023-08-24T09:20:00;101439.81;;;21.48;90.60
29417;BME280;28421;51.030;4.006;2023-08-24T09:22:26;101458.41;;;21.21;92.10
29417;BME280;28421;51.030;4.006;2023-08-24T09:24:52;101555.31;;;21.32;94.52
29417;BME280;28421;51.030;4.006;2023-08-24T09:27:19;101540.97;;;21.12;96.93
29417;BME280;28421;51.030;4.006;2023-08-24T09:29:52;101521.09;;;20.98;97.10
29417;BME280;28421;51.030;4.006;2023-08-24T09:32:22;101481.53;;;20.82;95.61
29417;BME280;28421;51.030;4.006;2023-08-24T09:34:49;101510.34;;;21.03;95.60
29417;BME280;28421;51.030;4.006;2023-08-24T09:37:15;101449.66;;;20.69;95.32
29417;BME280;28421;51.030;4.006;2023-08-24T09:39:41;101461.53;;;20.81;95.34
29417;BME280;28421;51.030;4.006;2023-08-24T09:42:07;101502.19;;;20.96;96.68
29417;BME280;28421;51.030;4.006;2023-08-24T09:44:32;101416.84;;;20.51;97.42
29417;BME280;28421;51.030;4.006;2023-08-24T09:46:58;101441.66;;;20.74;97.36
29417;BME280;28421;51.030;4.006;2023-08-24T09:49:24;101476.09;;;21.00;98.02
29417;BME280;28421;51.030;4.006;2023-08-24T09:51:55;101360.19;;;20.40;97.36
29417;BME280;28421;51.030;4.006;2023-08-24T09:54:26;101407.16;;;20.73;98.21
29417;BME280;28421;51.030;4.006;2023-08-24T09:56:52;101394.28;;;20.80;98.34
29417;BME280;28421;51.030;4.006;2023-08-24T09:59:21;101407.13;;;20.98;98.82
29417;BME280;28421;51.030;4.006;2023-08-24T10:01:50;101364.28;;;20.92;99.53
29417;BME280;28421;51.030;4.006;2023-08-24T10:04:24;101287.22;;;20.65;100.00
29417;BME280;28421;51.030;4.006;2023-08-24T10:07:08;101265.81;;;20.80;100.00
29417;BME280;28421;51.030;4.006;2023-08-24T10:10:13;101271.03;;;21.00;100.00
29417;BME280;28421;51.030;4.006;2023-08-24T10:12:44;101217.47;;;20.81;100.00
29417;BME280;28421;51.030;4.006;2023-08-24T10:15:12;101214.31;;;20.96;100.00
29417;BME280;28421;51.030;4.006;2023-08-24T10:17:39;101175.56;;;20.87;100.00
29417;BME280;28421;51.030;4.006;2023-08-24T10:20:05;101182.88;;;21.17;100.00
29417;BME280;28421;51.030;4.006;2023-08-24T10:22:35;101145.94;;;21.26;100.00
29417;BME280;28421;51.030;4.006;2023-08-24T10:25:02;101198.34;;;21.53;100.00
29417;BME280;28421;51.030;4.006;2023-08-24T10:27:28;101160.97;;;21.58;100.00
29417;BME280;28421;51.030;4.006;2023-08-24T10:29:55;101151.59;;;21.78;98.88
29417;BME280;28421;51.030;4.006;2023-08-24T10:32:22;101157.88;;;21.90;98.79
29417;BME280;28421;51.030;4.006;2023-08-24T10:34:49;101108.88;;;21.53;97.12
29417;BME280;28421;51.030;4.006;2023-08-24T10:37:15;101177.16;;;22.19;95.57
29417;BME280;28421;51.030;4.006;2023-08-24T10:39:45;101112.06;;;22.38;93.10
29417;BME280;28421;51.030;4.006;2023-08-24T10:42:13;101123.09;;;23.00;93.83
29417;BME280;28421;51.030;4.006;2023-08-24T10:44:40;101100.09;;;23.51;92.25
29417;BME280;28421;51.030;4.006;2023-08-24T10:47:18;101093.97;;;23.11;91.76
29417;BME280;28421;51.030;4.006;2023-08-24T10:52:35;101124.28;;;24.37;87.77
29417;BME280;28421;51.030;4.006;2023-08-24T10:55:03;101120.59;;;24.26;85.42
29417;BME280;28421;51.030;4.006;2023-08-24T10:57:39;101092.41;;;23.92;82.41
29417;BME280;28421;51.030;4.006;2023-08-24T11:00:13;101131.50;;;24.21;84.41
29417;BME280;28421;51.030;4.006;2023-08-24T11:02:45;101136.59;;;24.51;84.00
29417;BME280;28421;51.030;4.006;2023-08-24T11:07:55;101171.81;;;24.82;82.08
29417;BME280;28421;51.030;4.006;2023-08-24T11:10:26;101121.88;;;24.41;82.14
29417;BME280;28421;51.030;4.006;2023-08-24T11:15:30;101144.63;;;24.58;80.57
29417;BME280;28421;51.030;4.006;2023-08-24T11:21:04;101142.38;;;24.55;78.75
29417;BME280;28421;51.030;4.006;2023-08-24T11:23:30;101204.41;;;24.95;78.57
29417;BME280;28421;51.030;4.006;2023-08-24T11:26:00;101149.69;;;24.44;77.20
29417;BME280;28421;51.030;4.006;2023-08-24T11:28:27;101222.78;;;25.11;77.55
29417;BME280;28421;51.030;4.006;2023-08-24T11:30:54;101173.94;;;25.01;76.51
29417;BME280;28421;51.030;4.006;2023-08-24T11:33:31;101224.38;;;25.34;75.53
29417;BME280;28421;51.030;4.006;2023-08-24T11:35:57;101217.28;;;25.11;74.85
29417;BME280;28421;51.030;4.006;2023-08-24T11:38:23;101227.72;;;25.09;74.25
29417;BME280;28421;51.030;4.006;2023-08-24T11:40:51;101213.53;;;25.22;73.90
29417;BME280;28421;51.030;4.006;2023-08-24T11:43:24;101244.16;;;25.31;75.07
29417;BME280;28421;51.030;4.006;2023-08-24T11:45:51;101225.41;;;25.28;73.66
29417;BME280;28421;51.030;4.006;2023-08-24T11:48:17;101250.00;;;25.13;73.59
29417;BME280;28421;51.030;4.006;2023-08-24T11:50:42;101237.16;;;24.96;74.87
29417;BME280;28421;51.030;4.006;2023-08-24T11:53:08;101215.47;;;25.00;74.71
29417;BME280;28421;51.030;4.006;2023-08-24T11:55:33;101167.56;;;24.69;75.34
29417;BME280;28421;51.030;4.006;2023-08-24T11:58:00;101155.88;;;24.57;75.03
29417;BME280;28421;51.030;4.006;2023-08-24T12:00:25;101186.16;;;24.62;75.82
29417;BME280;28421;51.030;4.006;2023-08-24T12:02:52;101141.41;;;24.39;75.50
29417;BME280;28421;51.030;4.006;2023-08-24T12:05:22;101154.31;;;24.39;75.70
29417;BME280;28421;51.030;4.006;2023-08-24T12:07:48;101148.81;;;24.22;75.65
29417;BME280;28421;51.030;4.006;2023-08-24T12:10:13;101184.63;;;24.27;76.16
29417;BME280;28421;51.030;4.006;2023-08-24T12:12:39;101180.34;;;24.36;76.06
29417;BME280;28421;51.030;4.006;2023-08-24T12:15:05;101190.41;;;24.47;76.89
29417;BME280;28421;51.030;4.006;2023-08-24T12:17:42;101168.94;;;24.44;76.60
29417;BME280;28421;51.030;4.006;2023-08-24T12:20:15;101133.44;;;24.21;75.74
29417;BME280;28421;51.030;4.006;2023-08-24T12:22:42;101132.06;;;24.40;75.84
29417;BME280;28421;51.030;4.006;2023-08-24T12:25:07;101131.66;;;24.31;77.52
29417;BME280;28421;51.030;4.006;2023-08-24T12:27:33;101157.72;;;24.51;76.12
29417;BME280;28421;51.030;4.006;2023-08-24T12:30:02;101128.22;;;24.41;76.42
29417;BME280;28421;51.030;4.006;2023-08-24T12:32:44;101180.06;;;24.82;75.24
29417;BME280;28421;51.030;4.006;2023-08-24T12:35:11;101175.81;;;24.69;75.48
29417;BME280;28421;51.030;4.006;2023-08-24T12:37:36;101148.13;;;24.31;76.61
29417;BME280;28421;51.030;4.006;2023-08-24T12:40:03;101153.16;;;24.18;75.77
29417;BME280;28421;51.030;4.006;2023-08-24T12:42:31;101159.41;;;23.91;77.16
29417;BME280;28421;51.030;4.006;2023-08-24T12:44:57;101195.47;;;24.17;76.67
29417;BME280;28421;51.030;4.006;2023-08-24T12:47:22;101143.97;;;23.85;76.63
29417;BME280;28421;51.030;4.006;2023-08-24T12:49:47;101172.88;;;23.93;76.70
29417;BME280;28421;51.030;4.006;2023-08-24T12:52:13;101183.97;;;24.20;77.22
29417;BME280;28421;51.030;4.006;2023-08-24T12:54:39;101157.59;;;23.80;77.01
29417;BME280;28421;51.030;4.006;2023-08-24T12:57:04;101178.38;;;24.10;77.11
29417;BME280;28421;51.030;4.006;2023-08-24T12:59:30;101137.41;;;23.69;78.82
29417;BME280;28421;51.030;4.006;2023-08-24T13:01:55;101163.75;;;23.87;78.75
29417;BME280;28421;51.030;4.006;2023-08-24T13:04:21;101156.34;;;23.88;78.30
29417;BME280;28421;51.030;4.006;2023-08-24T13:06:46;101195.84;;;24.25;78.08